Time;durP1;ratioP1;P1;durP2;ratioP2;P2;SDS_P1;SDS_P2;PMS_P1;PMS_P2;Temp;Humidity;BMP_temperature;BMP_pressure;BME280_temperature;BME280_humidity;BME280_pressure;Samples;Min_cycle;Max_cycle;Signal;HPM_P1;HPM_P2
2020/12/08 00:01:35;;;;;;;27.43;25.40;;;;;;;;;;4994124;28;20183;-82
2020/12/08 00:04:04;;;;;;;28.50;26.30;;;;;;;;;;4992787;28;20632;-82
2020/12/08 00:06:40;;;;;;;27.83;25.60;;;;;;;;;;4996095;28;20267;-81
2020/12/08 00:09:11;;;;;;;26.37;24.27;;;;;;;;;;4994657;28;20629;-82
2020/12/08 00:11:42;;;;;;;24.53;22.53;;;;;;;;;;4996612;28;20180;-81
2020/12/08 00:14:13;;;;;;;26.50;24.40;;;;;;;;;;4998123;28;20239;-84
2020/12/08 00:16:45;;;;;;;25.97;23.97;;;;;;;;;;4998021;28;20199;-82
2020/12/08 00:19:15;;;;;;;26.10;24.10;;;;;;;;;;4998374;28;20704;-85
2020/12/08 00:21:48;;;;;;;26.07;24.00;;;;;;;;;;4997562;28;20548;-82
2020/12/08 00:24:20;;;;;;;25.47;23.47;;;;;;;;;;4997422;28;20177;-82
2020/12/08 00:26:47;;;;;;;25.67;23.77;;;;;;;;;;4997300;28;20185;-83
2020/12/08 00:29:21;;;;;;;26.60;24.20;;;;;;;;;;4997094;28;20204;-82
2020/12/08 00:31:51;;;;;;;25.97;23.87;;;;;;;;;;4996103;28;20176;-82
2020/12/08 00:34:22;;;;;;;25.53;23.53;;;;;;;;;;4997401;28;20583;-82
2020/12/08 00:36:54;;;;;;;24.63;22.83;;;;;;;;;;4997460;28;20260;-82
2020/12/08 00:39:31;;;;;;;27.60;25.43;;;;;;;;;;4995802;28;20199;-82
2020/12/08 00:42:04;;;;;;;27.97;25.87;;;;;;;;;;4997601;28;20184;-82
2020/12/08 00:44:36;;;;;;;27.30;25.00;;;;;;;;;;4995958;28;20179;-82
2020/12/08 00:47:07;;;;;;;27.03;24.93;;;;;;;;;;4995666;28;20214;-82
2020/12/08 00:49:38;;;;;;;25.90;24.00;;;;;;;;;;4996959;28;20292;-82
2020/12/08 00:52:10;;;;;;;25.93;24.03;;;;;;;;;;4996821;28;20172;-82
2020/12/08 00:54:42;;;;;;;27.83;25.67;;;;;;;;;;4997111;28;20172;-82
2020/12/08 00:57:09;;;;;;;28.23;25.93;;;;;;;;;;4995747;28;20232;-82
2020/12/08 00:59:41;;;;;;;27.43;25.33;;;;;;;;;;4995742;28;20231;-82
2020/12/08 01:02:15;;;;;;;29.63;27.27;;;;;;;;;;4997258;28;20159;-82
2020/12/08 01:04:47;;;;;;;28.63;26.53;;;;;;;;;;4997117;28;20168;-82
2020/12/08 01:07:21;;;;;;;27.93;25.73;;;;;;;;;;4995645;28;20184;-82
2020/12/08 01:09:51;;;;;;;27.53;25.37;;;;;;;;;;4994926;28;20651;-82
2020/12/08 01:12:17;;;;;;;29.07;26.67;;;;;;;;;;4995909;28;20231;-82
2020/12/08 01:14:49;;;;;;;26.17;24.00;;;;;;;;;;4996763;28;20173;-82
2020/12/08 01:17:18;;;;;;;27.83;25.57;;;;;;;;;;4996761;28;20180;-82
2020/12/08 01:19:51;;;;;;;26.07;24.03;;;;;;;;;;4996290;28;20196;-82
2020/12/08 01:22:29;;;;;;;26.27;24.37;;;;;;;;;;4995724;28;20177;-82
2020/12/08 01:25:01;;;;;;;27.23;25.23;;;;;;;;;;4996749;28;20168;-82
2020/12/08 01:27:34;;;;;;;28.67;26.47;;;;;;;;;;4996627;28;20227;-82
2020/12/08 01:30:01;;;;;;;28.97;26.87;;;;;;;;;;4994867;28;20202;-82
2020/12/08 01:32:31;;;;;;;30.93;28.03;;;;;;;;;;4996877;28;20244;-82
2020/12/08 01:35:04;;;;;;;30.70;28.40;;;;;;;;;;4996205;28;20218;-82
2020/12/08 01:37:35;;;;;;;30.20;28.10;;;;;;;;;;4996248;28;20160;-82
2020/12/08 01:40:08;;;;;;;32.50;30.13;;;;;;;;;;4996281;28;20288;-82
2020/12/08 01:42:37;;;;;;;31.27;29.00;;;;;;;;;;4994916;28;20263;-82
2020/12/08 01:45:09;;;;;;;31.10;28.50;;;;;;;;;;4996129;28;20203;-82
2020/12/08 01:47:36;;;;;;;34.07;31.60;;;;;;;;;;4996022;28;20179;-83
2020/12/08 01:50:08;;;;;;;32.07;29.63;;;;;;;;;;4996475;28;20211;-82
2020/12/08 01:52:39;;;;;;;30.60;28.33;;;;;;;;;;4994681;28;20253;-82
2020/12/08 01:55:11;;;;;;;30.60;28.30;;;;;;;;;;4996005;28;20172;-82
2020/12/08 01:57:41;;;;;;;30.60;28.20;;;;;;;;;;4995992;28;20550;-82
2020/12/08 02:00:11;;;;;;;30.20;27.77;;;;;;;;;;4995154;28;20200;-82
2020/12/08 02:02:41;;;;;;;30.53;28.13;;;;;;;;;;4995912;28;20182;-82
2020/12/08 02:05:11;;;;;;;30.57;28.27;;;;;;;;;;4995781;28;20613;-82
2020/12/08 02:07:51;;;;;;;29.37;27.10;;;;;;;;;;4995798;28;20253;-83
2020/12/08 02:10:21;;;;;;;27.60;25.50;;;;;;;;;;4995341;28;20222;-82
2020/12/08 02:12:51;;;;;;;27.67;25.27;;;;;;;;;;4995441;28;20650;-82
2020/12/08 02:15:19;;;;;;;27.40;25.40;;;;;;;;;;4994268;28;20604;-82
2020/12/08 02:17:45;;;;;;;26.90;24.73;;;;;;;;;;4994669;28;20226;-82
2020/12/08 02:20:17;;;;;;;25.70;23.80;;;;;;;;;;4994244;28;20678;-82
2020/12/08 02:22:47;;;;;;;25.50;23.53;;;;;;;;;;4995473;28;20164;-82
2020/12/08 02:25:21;;;;;;;27.17;25.07;;;;;;;;;;4994181;28;20548;-82
2020/12/08 02:27:51;;;;;;;28.23;25.93;;;;;;;;;;4993997;28;20210;-82
2020/12/08 02:30:25;;;;;;;28.27;26.13;;;;;;;;;;4995414;28;20760;-82
2020/12/08 02:32:55;;;;;;;27.63;25.63;;;;;;;;;;4994142;28;20183;-82
2020/12/08 02:35:26;;;;;;;28.17;25.87;;;;;;;;;;4995504;28;20208;-82
2020/12/08 02:37:56;;;;;;;26.57;24.47;;;;;;;;;;4993919;28;20276;-82
2020/12/08 02:40:24;;;;;;;26.70;24.57;;;;;;;;;;4994927;28;20236;-82
2020/12/08 02:43:01;;;;;;;27.37;25.17;;;;;;;;;;4993894;28;20187;-82
2020/12/08 02:45:31;;;;;;;26.73;24.67;;;;;;;;;;4993645;28;20219;-82
2020/12/08 02:48:04;;;;;;;25.67;23.63;;;;;;;;;;4995141;28;20200;-82
2020/12/08 02:50:35;;;;;;;26.73;24.67;;;;;;;;;;4993817;28;20240;-82
2020/12/08 02:53:08;;;;;;;28.23;26.13;;;;;;;;;;4995085;28;20657;-81
2020/12/08 02:55:40;;;;;;;28.67;26.63;;;;;;;;;;4994874;28;20251;-82
2020/12/08 02:58:06;;;;;;;28.93;26.83;;;;;;;;;;4994599;28;20205;-82
2020/12/08 03:00:35;;;;;;;28.00;26.07;;;;;;;;;;4994645;28;20207;-81
2020/12/08 03:03:04;;;;;;;31.20;28.80;;;;;;;;;;4993374;28;20185;-82
2020/12/08 03:05:34;;;;;;;30.20;27.90;;;;;;;;;;4993354;28;20655;-82
2020/12/08 03:08:04;;;;;;;29.60;27.40;;;;;;;;;;4993486;28;20233;-82
2020/12/08 03:10:39;;;;;;;29.50;27.30;;;;;;;;;;4994683;28;20216;-82
2020/12/08 03:13:09;;;;;;;29.67;27.40;;;;;;;;;;4994753;28;20639;-82
2020/12/08 03:15:41;;;;;;;29.73;27.60;;;;;;;;;;4994892;28;20168;-82
2020/12/08 03:18:07;;;;;;;29.30;27.07;;;;;;;;;;4993322;28;20176;-82
2020/12/08 03:20:39;;;;;;;29.90;27.70;;;;;;;;;;4993451;28;20250;-82
2020/12/08 03:23:11;;;;;;;30.60;28.30;;;;;;;;;;4993628;28;20543;-82
2020/12/08 03:25:41;;;;;;;29.00;26.90;;;;;;;;;;4993236;28;20180;-82
2020/12/08 03:28:07;;;;;;;29.83;27.73;;;;;;;;;;4994523;28;20274;-85
2020/12/08 03:30:39;;;;;;;29.57;27.47;;;;;;;;;;4993182;28;20205;-82
2020/12/08 03:33:09;;;;;;;30.03;27.87;;;;;;;;;;4994606;28;20179;-82
2020/12/08 03:35:40;;;;;;;31.67;29.37;;;;;;;;;;4994833;28;20648;-82
2020/12/08 03:38:15;;;;;;;31.60;29.37;;;;;;;;;;4994952;28;20536;-82
2020/12/08 03:40:49;;;;;;;28.60;26.60;;;;;;;;;;4994700;28;20272;-83
2020/12/08 03:43:21;;;;;;;30.17;27.80;;;;;;;;;;4994758;28;20163;-83
2020/12/08 03:45:54;;;;;;;29.17;27.07;;;;;;;;;;4998043;28;20180;-82
2020/12/08 03:48:29;;;;;;;30.37;28.07;;;;;;;;;;4997177;28;20242;-82
2020/12/08 03:51:00;;;;;;;29.77;27.47;;;;;;;;;;4998704;28;20215;-81
2020/12/08 03:53:32;;;;;;;29.03;26.83;;;;;;;;;;4998228;28;20176;-81
2020/12/08 03:56:01;;;;;;;28.03;25.93;;;;;;;;;;4998338;28;20174;-81
2020/12/08 03:58:31;;;;;;;29.40;27.33;;;;;;;;;;4997958;28;20172;-82
2020/12/08 04:01:04;;;;;;;28.77;26.67;;;;;;;;;;4998217;28;20178;-82
2020/12/08 04:03:41;;;;;;;26.87;24.77;;;;;;;;;;4997830;28;20536;-81
2020/12/08 04:06:12;;;;;;;29.57;27.23;;;;;;;;;;4998138;28;20157;-82
2020/12/08 04:08:48;;;;;;;28.47;26.33;;;;;;;;;;4996559;28;20627;-82
2020/12/08 04:11:19;;;;;;;27.87;25.77;;;;;;;;;;4998485;28;20186;-82
2020/12/08 04:13:55;;;;;;;29.53;27.33;;;;;;;;;;4997988;28;20205;-82
2020/12/08 04:16:31;;;;;;;29.40;27.10;;;;;;;;;;4997941;28;20158;-82
2020/12/08 04:19:01;;;;;;;27.57;25.47;;;;;;;;;;4997953;28;20223;-82
2020/12/08 04:21:35;;;;;;;28.27;26.10;;;;;;;;;;4996529;28;20295;-82
2020/12/08 04:24:05;;;;;;;29.53;27.23;;;;;;;;;;4998061;28;20168;-82
2020/12/08 04:26:38;;;;;;;28.67;26.47;;;;;;;;;;4997017;28;20181;-82
2020/12/08 04:29:07;;;;;;;27.57;25.53;;;;;;;;;;4996143;28;20629;-82
2020/12/08 04:31:38;;;;;;;27.53;25.33;;;;;;;;;;4997627;28;20169;-82
2020/12/08 04:34:10;;;;;;;25.67;23.77;;;;;;;;;;4997353;28;20672;-82
2020/12/08 04:36:41;;;;;;;26.83;24.73;;;;;;;;;;4996220;28;20180;-82
2020/12/08 04:39:15;;;;;;;27.13;25.03;;;;;;;;;;4997957;28;20270;-82
2020/12/08 04:41:45;;;;;;;27.50;25.40;;;;;;;;;;4998009;28;20175;-82
2020/12/08 04:44:15;;;;;;;27.77;25.60;;;;;;;;;;4997398;28;20251;-82
2020/12/08 04:46:43;;;;;;;25.77;23.97;;;;;;;;;;4997298;28;20174;-82
2020/12/08 04:49:11;;;;;;;26.50;24.57;;;;;;;;;;4997235;28;20616;-82
2020/12/08 04:51:41;;;;;;;26.67;24.77;;;;;;;;;;4996296;28;20182;-81
2020/12/08 04:54:08;;;;;;;25.90;24.10;;;;;;;;;;4997097;28;20172;-82
2020/12/08 04:56:35;;;;;;;26.93;24.47;;;;;;;;;;4994319;28;20186;-82
2020/12/08 04:59:11;;;;;;;26.20;24.20;;;;;;;;;;4996976;28;20574;-81
2020/12/08 05:01:41;;;;;;;27.60;25.60;;;;;;;;;;4996917;28;20631;-82
2020/12/08 05:04:07;;;;;;;27.87;25.67;;;;;;;;;;4997322;28;20183;-82
2020/12/08 05:06:39;;;;;;;25.93;23.90;;;;;;;;;;4996820;28;20197;-82
2020/12/08 05:09:15;;;;;;;27.27;25.20;;;;;;;;;;5037526;23;20374;-87
2020/12/08 05:11:45;;;;;;;25.83;23.97;;;;;;;;;;4995962;28;20185;-87
2020/12/08 05:14:15;;;;;;;25.43;23.53;;;;;;;;;;4994757;28;20172;-87
2020/12/08 05:16:45;;;;;;;27.87;25.67;;;;;;;;;;4994634;28;20177;-88
2020/12/08 05:19:13;;;;;;;27.23;25.03;;;;;;;;;;4994425;28;20196;-87
2020/12/08 05:21:53;;;;;;;26.27;24.37;;;;;;;;;;4996163;28;20202;-87
2020/12/08 05:24:29;;;;;;;26.03;23.73;;;;;;;;;;4994405;28;20182;-87
2020/12/08 05:27:06;;;;;;;25.87;23.77;;;;;;;;;;4994447;28;20194;-87
2020/12/08 05:29:36;;;;;;;27.50;25.43;;;;;;;;;;4994267;28;20721;-87
2020/12/08 05:32:35;;;;;;;29.53;27.07;;;;;;;;;;4994419;28;20171;-87
2020/12/08 05:35:10;;;;;;;28.63;26.13;;;;;;;;;;4994829;28;20575;-87
2020/12/08 05:37:41;;;;;;;29.80;27.60;;;;;;;;;;4995789;28;20173;-87
2020/12/08 05:40:15;;;;;;;31.13;28.93;;;;;;;;;;4994209;28;20206;-87
2020/12/08 05:42:46;;;;;;;29.50;27.30;;;;;;;;;;4994223;28;20266;-88
2020/12/08 05:45:16;;;;;;;29.73;27.40;;;;;;;;;;4995586;28;20179;-88
2020/12/08 05:47:58;;;;;;;29.63;27.43;;;;;;;;;;4994296;28;20549;-88
2020/12/08 05:50:30;;;;;;;30.87;28.47;;;;;;;;;;4993964;28;20318;-87
2020/12/08 05:53:02;;;;;;;27.93;25.63;;;;;;;;;;4993851;28;20179;-87
2020/12/08 05:55:36;;;;;;;28.10;25.80;;;;;;;;;;4995158;28;20170;-87
2020/12/08 05:58:06;;;;;;;28.10;26.00;;;;;;;;;;4994628;28;20184;-87
2020/12/08 06:00:38;;;;;;;26.93;24.83;;;;;;;;;;4993890;28;20191;-88
2020/12/08 06:03:11;;;;;;;26.60;24.60;;;;;;;;;;4994993;28;20174;-88
2020/12/08 06:05:41;;;;;;;25.03;23.23;;;;;;;;;;4994981;28;20182;-88
2020/12/08 06:08:24;;;;;;;26.30;24.07;;;;;;;;;;4993241;28;20174;-87
2020/12/08 06:10:57;;;;;;;26.87;24.47;;;;;;;;;;4993528;28;20222;-87
2020/12/08 06:13:31;;;;;;;26.80;24.50;;;;;;;;;;4993576;28;20174;-87
2020/12/08 06:16:16;;;;;;;24.63;22.77;;;;;;;;;;4995149;28;20639;-87
2020/12/08 06:18:45;;;;;;;26.30;24.07;;;;;;;;;;4995024;28;20187;-87
2020/12/08 06:21:26;;;;;;;26.50;24.40;;;;;;;;;;4993477;28;20237;-87
2020/12/08 06:23:58;;;;;;;24.50;22.47;;;;;;;;;;4993408;28;20185;-87
2020/12/08 06:26:32;;;;;;;24.50;22.50;;;;;;;;;;4994819;28;20184;-87
2020/12/08 06:29:11;;;;;;;24.97;23.00;;;;;;;;;;4993214;28;20213;-87
2020/12/08 06:31:49;;;;;;;24.30;22.50;;;;;;;;;;4993422;28;20186;-87
2020/12/08 06:34:28;;;;;;;24.73;22.93;;;;;;;;;;4993120;28;20182;-87
2020/12/08 06:37:11;;;;;;;24.10;22.27;;;;;;;;;;4994407;28;20229;-87
2020/12/08 06:39:41;;;;;;;22.47;20.87;;;;;;;;;;4994211;28;20202;-87
2020/12/08 06:42:17;;;;;;;23.33;21.40;;;;;;;;;;4994279;28;20281;-87
2020/12/08 06:44:46;;;;;;;22.20;20.60;;;;;;;;;;4994538;28;20281;-87
2020/12/08 06:47:15;;;;;;;22.47;20.83;;;;;;;;;;4992944;28;20186;-87
2020/12/08 06:49:42;;;;;;;22.03;20.43;;;;;;;;;;4993059;28;20214;-87
2020/12/08 06:52:13;;;;;;;23.57;21.77;;;;;;;;;;4994334;28;20261;-88
2020/12/08 06:54:39;;;;;;;22.60;20.80;;;;;;;;;;4992829;28;20232;-87
2020/12/08 06:57:05;;;;;;;22.43;20.53;;;;;;;;;;4992887;28;20206;-87
2020/12/08 06:59:33;;;;;;;25.10;23.20;;;;;;;;;;4993993;28;20277;-87
2020/12/08 07:02:04;;;;;;;31.10;28.50;;;;;;;;;;4993956;28;20178;-87
2020/12/08 07:04:31;;;;;;;29.27;26.67;;;;;;;;;;4993955;28;20241;-87
2020/12/08 07:07:06;;;;;;;29.10;27.00;;;;;;;;;;4992681;28;20187;-87
2020/12/08 07:09:40;;;;;;;29.57;27.27;;;;;;;;;;4992435;28;20244;-87
2020/12/08 07:12:11;;;;;;;30.80;27.83;;;;;;;;;;4992575;28;20181;-87
2020/12/08 07:14:38;;;;;;;28.93;26.63;;;;;;;;;;4993847;28;20179;-87
2020/12/08 07:17:04;;;;;;;26.93;24.97;;;;;;;;;;4993410;28;20219;-87
2020/12/08 07:19:38;;;;;;;26.87;24.67;;;;;;;;;;4991858;28;20200;-87
2020/12/08 07:22:08;;;;;;;28.57;26.37;;;;;;;;;;4993990;28;20570;-87
2020/12/08 07:24:45;;;;;;;28.17;25.77;;;;;;;;;;4993663;28;20189;-87
2020/12/08 07:27:15;;;;;;;27.67;25.43;;;;;;;;;;4992422;28;20184;-87
2020/12/08 07:29:43;;;;;;;25.17;23.27;;;;;;;;;;4992266;28;20215;-87
2020/12/08 07:32:10;;;;;;;24.93;23.07;;;;;;;;;;4992388;28;20190;-87
2020/12/08 07:34:50;;;;;;;26.73;24.83;;;;;;;;;;4993797;28;20627;-87
2020/12/08 07:37:25;;;;;;;28.47;26.27;;;;;;;;;;4992667;28;20185;-87
2020/12/08 07:40:08;;;;;;;27.20;25.00;;;;;;;;;;4993629;28;20207;-87
2020/12/08 07:42:41;;;;;;;27.27;25.27;;;;;;;;;;4992395;28;20657;-88
2020/12/08 07:45:11;;;;;;;28.53;26.33;;;;;;;;;;4993577;28;20192;-88
2020/12/08 07:47:41;;;;;;;26.07;24.07;;;;;;;;;;4992284;28;20185;-88
2020/12/08 07:50:23;;;;;;;24.83;22.80;;;;;;;;;;4992068;28;20210;-88
2020/12/08 07:53:21;;;;;;;27.07;24.87;;;;;;;;;;4992914;28;20656;-88
2020/12/08 07:55:50;;;;;;;26.03;23.93;;;;;;;;;;4982217;28;20187;-87
2020/12/08 07:58:17;;;;;;;23.47;21.60;;;;;;;;;;4993505;28;20300;-87
2020/12/08 08:00:51;;;;;;;24.30;22.40;;;;;;;;;;4992032;28;20758;-87
2020/12/08 08:03:22;;;;;;;24.80;22.67;;;;;;;;;;4993417;28;20183;-88
2020/12/08 08:05:49;;;;;;;23.27;21.47;;;;;;;;;;4992123;28;20188;-87
2020/12/08 08:08:21;;;;;;;23.43;21.53;;;;;;;;;;4993503;28;20185;-88
2020/12/08 08:10:55;;;;;;;22.53;20.73;;;;;;;;;;4993210;28;20252;-87
2020/12/08 08:13:25;;;;;;;23.43;21.37;;;;;;;;;;4993453;28;20174;-88
2020/12/08 08:15:54;;;;;;;24.37;22.47;;;;;;;;;;4993220;28;20696;-87
2020/12/08 08:18:23;;;;;;;25.97;23.77;;;;;;;;;;4992198;28;20274;-87
2020/12/08 08:20:51;;;;;;;26.37;23.93;;;;;;;;;;4993198;28;20674;-87
2020/12/08 08:23:18;;;;;;;25.37;23.07;;;;;;;;;;4993186;28;20188;-87
2020/12/08 08:25:46;;;;;;;24.80;22.80;;;;;;;;;;4991985;28;20271;-88
2020/12/08 08:28:13;;;;;;;26.93;24.40;;;;;;;;;;4993349;28;20182;-87
2020/12/08 08:30:39;;;;;;;25.93;23.63;;;;;;;;;;4993331;28;20235;-87
2020/12/08 08:33:08;;;;;;;25.57;23.27;;;;;;;;;;4996749;28;20199;-87
2020/12/08 08:35:35;;;;;;;26.23;23.83;;;;;;;;;;4996715;28;20183;-87
2020/12/08 08:38:03;;;;;;;25.23;23.03;;;;;;;;;;4995317;28;20185;-87
2020/12/08 08:40:37;;;;;;;25.50;23.20;;;;;;;;;;4995262;28;20205;-87
2020/12/08 08:43:07;;;;;;;23.63;21.63;;;;;;;;;;4995209;28;20201;-87
2020/12/08 08:45:37;;;;;;;24.73;22.63;;;;;;;;;;4995673;28;20240;-87
2020/12/08 08:48:08;;;;;;;25.43;23.13;;;;;;;;;;4996605;28;20180;-87
2020/12/08 08:50:38;;;;;;;27.90;24.93;;;;;;;;;;4994894;28;20216;-87
2020/12/08 08:53:11;;;;;;;26.93;24.30;;;;;;;;;;4995049;28;20220;-87
2020/12/08 08:55:39;;;;;;;26.67;24.43;;;;;;;;;;4996577;28;20652;-87
2020/12/08 08:58:08;;;;;;;25.97;23.50;;;;;;;;;;4995235;28;20181;-86
2020/12/08 09:00:35;;;;;;;26.73;24.33;;;;;;;;;;4996023;28;20753;-87
2020/12/08 09:03:05;;;;;;;25.97;23.43;;;;;;;;;;4994822;28;20673;-87
2020/12/08 09:05:32;;;;;;;26.60;24.40;;;;;;;;;;4995627;28;20634;-86
2020/12/08 09:07:58;;;;;;;25.60;23.40;;;;;;;;;;4995546;28;20210;-86
2020/12/08 09:10:24;;;;;;;25.53;23.13;;;;;;;;;;4996352;28;20208;-86
2020/12/08 09:12:51;;;;;;;27.57;25.00;;;;;;;;;;4995053;28;20250;-86
2020/12/08 09:15:18;;;;;;;26.17;23.87;;;;;;;;;;4995864;28;20190;-86
2020/12/08 09:17:44;;;;;;;26.03;23.63;;;;;;;;;;4996149;28;20188;-86
2020/12/08 09:20:10;;;;;;;26.87;24.47;;;;;;;;;;4994772;28;20572;-87
2020/12/08 09:22:37;;;;;;;27.03;24.23;;;;;;;;;;4994639;28;20572;-87
2020/12/08 09:25:03;;;;;;;25.63;23.40;;;;;;;;;;4995808;28;20260;-87
2020/12/08 09:27:29;;;;;;;26.37;23.77;;;;;;;;;;4994433;28;20237;-87
2020/12/08 09:29:55;;;;;;;26.03;23.63;;;;;;;;;;4994363;28;20212;-86
2020/12/08 09:32:22;;;;;;;27.33;24.63;;;;;;;;;;4994421;28;20270;-87
2020/12/08 09:34:48;;;;;;;26.77;24.17;;;;;;;;;;4995744;28;20174;-87
2020/12/08 09:37:14;;;;;;;28.17;25.37;;;;;;;;;;4994322;28;20182;-87
2020/12/08 09:39:40;;;;;;;26.93;24.40;;;;;;;;;;4994179;28;20621;-87
2020/12/08 09:42:06;;;;;;;27.43;24.73;;;;;;;;;;4995114;28;20178;-87
2020/12/08 09:44:32;;;;;;;26.17;23.77;;;;;;;;;;4994451;28;20240;-87
2020/12/08 09:46:58;;;;;;;27.77;25.07;;;;;;;;;;4994230;28;20642;-87
2020/12/08 09:49:24;;;;;;;27.50;24.90;;;;;;;;;;4993910;28;20198;-86
2020/12/08 09:51:50;;;;;;;27.47;24.70;;;;;;;;;;4994066;28;20178;-87
2020/12/08 09:54:16;;;;;;;27.00;24.40;;;;;;;;;;4995298;28;20174;-87
2020/12/08 09:56:45;;;;;;;27.43;24.83;;;;;;;;;;4995207;28;20178;-87
2020/12/08 09:59:11;;;;;;;27.27;24.67;;;;;;;;;;4993929;28;20198;-87
2020/12/08 10:01:37;;;;;;;27.03;24.43;;;;;;;;;;4994399;28;20236;-87
2020/12/08 10:04:03;;;;;;;26.03;23.30;;;;;;;;;;4993841;28;20273;-87
2020/12/08 10:06:29;;;;;;;25.83;23.03;;;;;;;;;;4995351;28;20179;-87
2020/12/08 10:08:56;;;;;;;25.60;22.87;;;;;;;;;;4993542;28;20178;-87
2020/12/08 10:11:23;;;;;;;26.20;23.57;;;;;;;;;;4993665;28;20206;-87
2020/12/08 10:13:49;;;;;;;27.80;24.93;;;;;;;;;;4993627;28;20213;-87
2020/12/08 10:16:25;;;;;;;25.60;23.17;;;;;;;;;;4993584;28;20739;-87
2020/12/08 10:18:52;;;;;;;26.37;23.93;;;;;;;;;;4993536;28;20180;-88
2020/12/08 10:21:24;;;;;;;27.93;25.33;;;;;;;;;;4993420;28;20187;-87
2020/12/08 10:23:51;;;;;;;27.50;24.63;;;;;;;;;;4993771;28;20181;-88
2020/12/08 10:26:18;;;;;;;25.70;23.20;;;;;;;;;;4993374;28;20191;-87
2020/12/08 10:28:44;;;;;;;25.53;22.93;;;;;;;;;;4993369;28;20592;-87
2020/12/08 10:31:10;;;;;;;31.13;24.30;;;;;;;;;;4993287;28;20212;-88
2020/12/08 10:33:39;;;;;;;24.53;22.17;;;;;;;;;;4993325;28;20788;-88
2020/12/08 10:36:10;;;;;;;25.67;23.27;;;;;;;;;;4994435;28;20265;-88
2020/12/08 10:38:36;;;;;;;26.63;24.03;;;;;;;;;;4993195;28;20180;-87
2020/12/08 10:41:04;;;;;;;28.53;25.67;;;;;;;;;;4994612;28;20187;-88
2020/12/08 10:43:31;;;;;;;31.13;25.27;;;;;;;;;;4993078;28;20180;-88
2020/12/08 10:45:57;;;;;;;28.20;25.57;;;;;;;;;;4993033;28;20215;-88
2020/12/08 10:48:27;;;;;;;30.50;27.60;;;;;;;;;;4993108;28;20259;-88
2020/12/08 10:50:59;;;;;;;31.07;28.47;;;;;;;;;;4994004;28;20212;-88
2020/12/08 10:53:28;;;;;;;29.37;26.77;;;;;;;;;;4992346;28;20183;-87
2020/12/08 10:55:54;;;;;;;31.53;28.60;;;;;;;;;;4992650;28;20175;-88
2020/12/08 10:58:20;;;;;;;31.93;29.43;;;;;;;;;;4992886;28;20267;-88
2020/12/08 11:00:51;;;;;;;31.17;28.43;;;;;;;;;;4992774;28;20257;-88
2020/12/08 11:03:20;;;;;;;32.50;29.57;;;;;;;;;;4992923;28;20177;-88
2020/12/08 11:05:50;;;;;;;30.10;27.37;;;;;;;;;;4992767;28;20183;-88
2020/12/08 11:08:18;;;;;;;30.37;27.47;;;;;;;;;;4994060;28;20271;-88
2020/12/08 11:10:47;;;;;;;30.13;27.63;;;;;;;;;;4992596;28;20250;-87
2020/12/08 11:13:20;;;;;;;29.03;26.53;;;;;;;;;;4993285;28;20558;-88
2020/12/08 11:15:46;;;;;;;30.20;27.40;;;;;;;;;;4994434;28;20169;-88
2020/12/08 11:18:15;;;;;;;30.50;27.83;;;;;;;;;;4993472;28;20183;-88
2020/12/08 11:20:41;;;;;;;29.87;26.67;;;;;;;;;;4992443;28;20204;-88
2020/12/08 11:23:11;;;;;;;29.77;27.07;;;;;;;;;;4992504;28;20241;-88
2020/12/08 11:25:38;;;;;;;29.93;27.30;;;;;;;;;;4994053;28;20169;-88
2020/12/08 11:28:05;;;;;;;29.87;27.10;;;;;;;;;;4993883;28;20210;-88
2020/12/08 11:30:34;;;;;;;29.50;26.90;;;;;;;;;;5018006;23;20246;-87
2020/12/08 11:33:05;;;;;;;29.27;26.67;;;;;;;;;;4993224;28;20179;-87
2020/12/08 11:35:39;;;;;;;29.30;26.70;;;;;;;;;;4992518;28;20202;-87
2020/12/08 11:38:11;;;;;;;28.90;25.77;;;;;;;;;;4992449;28;20178;-86
2020/12/08 11:40:41;;;;;;;28.37;25.77;;;;;;;;;;4993555;28;20195;-87
2020/12/08 11:43:11;;;;;;;25.90;23.63;;;;;;;;;;4992600;28;20651;-87
2020/12/08 11:45:44;;;;;;;26.10;23.80;;;;;;;;;;4993612;28;20186;-87
2020/12/08 11:48:15;;;;;;;27.67;24.90;;;;;;;;;;4993610;28;20187;-87
2020/12/08 11:50:47;;;;;;;24.03;21.73;;;;;;;;;;4992218;28;20219;-87
2020/12/08 11:53:15;;;;;;;25.97;23.47;;;;;;;;;;4992297;28;20172;-87
2020/12/08 11:55:42;;;;;;;27.60;24.73;;;;;;;;;;4993510;28;20172;-87
2020/12/08 11:58:10;;;;;;;26.90;24.47;;;;;;;;;;4992467;28;20179;-87
2020/12/08 12:00:37;;;;;;;26.07;23.67;;;;;;;;;;4992162;28;20208;-87
2020/12/08 12:03:11;;;;;;;27.70;24.93;;;;;;;;;;4992250;28;20251;-87
2020/12/08 12:05:41;;;;;;;27.83;25.30;;;;;;;;;;4994827;28;20710;-87
2020/12/08 12:08:11;;;;;;;27.33;24.80;;;;;;;;;;4996053;28;20181;-87
2020/12/08 12:10:41;;;;;;;27.53;25.07;;;;;;;;;;4996217;28;20278;-87
2020/12/08 12:13:11;;;;;;;29.53;26.60;;;;;;;;;;4997187;28;20676;-87
2020/12/08 12:15:41;;;;;;;28.43;25.73;;;;;;;;;;4995787;28;20180;-87
2020/12/08 12:18:11;;;;;;;29.53;26.73;;;;;;;;;;4997279;28;20198;-87
2020/12/08 12:20:41;;;;;;;27.37;24.87;;;;;;;;;;4997193;28;20205;-87
2020/12/08 12:23:11;;;;;;;25.70;23.10;;;;;;;;;;4995733;28;20179;-87
2020/12/08 12:25:41;;;;;;;27.40;24.80;;;;;;;;;;4996913;28;20185;-87
2020/12/08 12:28:08;;;;;;;27.67;24.80;;;;;;;;;;4996853;28;20708;-87
2020/12/08 12:30:41;;;;;;;26.73;24.33;;;;;;;;;;4996739;28;20213;-87
2020/12/08 12:33:11;;;;;;;26.33;23.83;;;;;;;;;;4995651;28;20191;-87
2020/12/08 12:35:41;;;;;;;23.87;21.43;;;;;;;;;;4996682;28;20205;-86
2020/12/08 12:38:14;;;;;;;27.73;24.77;;;;;;;;;;4996665;28;20212;-87
2020/12/08 12:40:45;;;;;;;28.63;25.70;;;;;;;;;;4996597;28;20275;-87
2020/12/08 12:43:17;;;;;;;28.73;25.73;;;;;;;;;;4995262;28;20172;-87
2020/12/08 12:45:48;;;;;;;29.00;26.13;;;;;;;;;;4996572;28;20545;-87
2020/12/08 12:48:20;;;;;;;31.17;27.87;;;;;;;;;;4996413;28;20258;-87
2020/12/08 12:50:55;;;;;;;29.97;26.87;;;;;;;;;;4996256;28;20211;-87
2020/12/08 12:53:27;;;;;;;28.00;25.23;;;;;;;;;;4996406;28;20175;-87
2020/12/08 12:55:58;;;;;;;27.83;24.67;;;;;;;;;;4994972;28;20176;-87
2020/12/08 12:58:29;;;;;;;29.67;26.67;;;;;;;;;;4995093;28;20181;-87
2020/12/08 13:01:01;;;;;;;26.90;24.27;;;;;;;;;;4996349;28;20199;-87
2020/12/08 13:03:32;;;;;;;27.17;24.27;;;;;;;;;;4996247;28;20167;-87
2020/12/08 13:06:03;;;;;;;26.73;23.47;;;;;;;;;;4995198;28;20677;-87
2020/12/08 13:08:34;;;;;;;26.07;23.43;;;;;;;;;;4994902;28;20182;-87
2020/12/08 13:11:09;;;;;;;25.87;23.37;;;;;;;;;;4996364;28;20194;-87
2020/12/08 13:13:40;;;;;;;27.13;23.50;;;;;;;;;;4995206;28;20180;-87
2020/12/08 13:16:11;;;;;;;26.30;23.53;;;;;;;;;;4994522;28;20644;-87
2020/12/08 13:18:41;;;;;;;27.83;24.90;;;;;;;;;;4994189;28;20174;-86
2020/12/08 13:21:10;;;;;;;28.27;25.40;;;;;;;;;;4996182;28;20177;-87
2020/12/08 13:23:41;;;;;;;27.27;24.57;;;;;;;;;;4995910;28;20605;-87
2020/12/08 13:26:09;;;;;;;26.97;24.50;;;;;;;;;;4996171;28;20549;-87
2020/12/08 13:28:39;;;;;;;27.37;24.70;;;;;;;;;;4994490;28;20184;-87
2020/12/08 13:31:11;;;;;;;30.03;27.13;;;;;;;;;;4995732;28;20220;-87
2020/12/08 13:33:41;;;;;;;30.87;26.30;;;;;;;;;;4995840;28;20168;-87
2020/12/08 13:36:08;;;;;;;28.83;25.87;;;;;;;;;;4994455;28;20175;-87
2020/12/08 13:38:40;;;;;;;28.17;25.17;;;;;;;;;;4995763;28;20238;-87
2020/12/08 13:41:09;;;;;;;27.63;24.77;;;;;;;;;;4994508;28;20270;-87
2020/12/08 13:43:45;;;;;;;27.37;24.63;;;;;;;;;;4995474;28;20220;-87
2020/12/08 13:46:15;;;;;;;28.83;26.03;;;;;;;;;;4995735;28;20664;-87
2020/12/08 13:48:44;;;;;;;28.43;25.67;;;;;;;;;;4995374;28;20179;-87
2020/12/08 13:51:15;;;;;;;30.87;27.80;;;;;;;;;;4994064;28;20203;-87
2020/12/08 13:53:47;;;;;;;27.93;25.27;;;;;;;;;;4994058;28;20176;-87
2020/12/08 13:56:21;;;;;;;29.80;26.90;;;;;;;;;;4995344;28;20194;-88
2020/12/08 13:58:55;;;;;;;28.43;25.80;;;;;;;;;;4995165;28;20170;-87
2020/12/08 14:01:29;;;;;;;29.20;26.03;;;;;;;;;;4995716;28;20174;-87
2020/12/08 14:04:05;;;;;;;28.87;26.17;;;;;;;;;;4995119;28;20174;-87
2020/12/08 14:06:41;;;;;;;32.00;28.17;;;;;;;;;;4993822;28;20698;-87
2020/12/08 14:09:11;;;;;;;29.77;26.67;;;;;;;;;;4995003;28;20206;-87
2020/12/08 14:11:44;;;;;;;29.60;26.83;;;;;;;;;;4993585;28;20571;-87
2020/12/08 14:14:15;;;;;;;34.37;27.60;;;;;;;;;;4994888;28;20201;-87
2020/12/08 14:16:45;;;;;;;31.03;27.80;;;;;;;;;;4993566;28;20554;-87
2020/12/08 14:19:15;;;;;;;31.57;28.43;;;;;;;;;;4993513;28;20195;-87
2020/12/08 14:21:44;;;;;;;31.47;28.60;;;;;;;;;;4993470;28;20179;-87
2020/12/08 14:24:26;;;;;;;30.50;27.70;;;;;;;;;;4993421;28;20220;-87
2020/12/08 14:26:57;;;;;;;32.67;29.17;;;;;;;;;;4993995;28;20261;-87
2020/12/08 14:29:29;;;;;;;31.97;28.90;;;;;;;;;;4994298;28;20218;-87
2020/12/08 14:32:01;;;;;;;31.90;28.67;;;;;;;;;;4993267;28;20190;-87
2020/12/08 14:34:35;;;;;;;31.37;28.37;;;;;;;;;;4994560;28;20523;-87
2020/12/08 14:37:09;;;;;;;34.20;30.77;;;;;;;;;;4994647;28;20176;-87